sensor_id;sensor_type;location;lat;lon;timestamp;temperature;humidity
39325;DHT22;25037;49.488;9.900;2024-03-06T00:00:36;9.90;69.10
39325;DHT22;25037;49.488;9.900;2024-03-06T00:03:02;10.00;69.20
39325;DHT22;25037;49.488;9.900;2024-03-06T00:05:29;10.00;69.10
39325;DHT22;25037;49.488;9.900;2024-03-06T00:07:56;10.00;69.20
39325;DHT22;25037;49.488;9.900;2024-03-06T00:10:23;10.00;69.10
39325;DHT22;25037;49.488;9.900;2024-03-06T00:12:49;10.00;69.20
39325;DHT22;25037;49.488;9.900;2024-03-06T00:15:16;10.00;69.20
39325;DHT22;25037;49.488;9.900;2024-03-06T00:17:43;10.00;69.20
39325;DHT22;25037;49.488;9.900;2024-03-06T00:20:10;9.90;69.20
39325;DHT22;25037;49.488;9.900;2024-03-06T00:22:37;9.90;69.20
39325;DHT22;25037;49.488;9.900;2024-03-06T00:25:04;9.90;69.20
39325;DHT22;25037;49.488;9.900;2024-03-06T00:27:31;9.90;69.30
39325;DHT22;25037;49.488;9.900;2024-03-06T00:29:58;9.90;69.30
39325;DHT22;25037;49.488;9.900;2024-03-06T00:32:24;9.90;69.30
39325;DHT22;25037;49.488;9.900;2024-03-06T00:34:51;9.90;69.30
39325;DHT22;25037;49.488;9.900;2024-03-06T00:37:18;9.90;69.40
39325;DHT22;25037;49.488;9.900;2024-03-06T00:39:44;9.90;69.40
39325;DHT22;25037;49.488;9.900;2024-03-06T00:42:11;9.90;69.40
39325;DHT22;25037;49.488;9.900;2024-03-06T00:44:40;9.90;69.40
39325;DHT22;25037;49.488;9.900;2024-03-06T00:47:06;9.90;69.40
39325;DHT22;25037;49.488;9.900;2024-03-06T00:49:33;9.90;69.40
39325;DHT22;25037;49.488;9.900;2024-03-06T00:52:00;9.90;69.50
39325;DHT22;25037;49.488;9.900;2024-03-06T00:54:27;9.90;69.50
39325;DHT22;25037;49.488;9.900;2024-03-06T00:56:53;9.90;69.50
39325;DHT22;25037;49.488;9.900;2024-03-06T00:59:20;9.90;69.50
39325;DHT22;25037;49.488;9.900;2024-03-06T01:01:47;9.90;69.50
39325;DHT22;25037;49.488;9.900;2024-03-06T01:04:14;9.90;69.60
39325;DHT22;25037;49.488;9.900;2024-03-06T01:06:40;9.90;69.60
39325;DHT22;25037;49.488;9.900;2024-03-06T01:09:07;9.90;69.60
39325;DHT22;25037;49.488;9.900;2024-03-06T01:11:34;9.90;69.60
39325;DHT22;25037;49.488;9.900;2024-03-06T01:14:00;9.90;69.60
39325;DHT22;25037;49.488;9.900;2024-03-06T01:16:28;9.90;69.50
39325;DHT22;25037;49.488;9.900;2024-03-06T01:18:56;9.80;69.60
39325;DHT22;25037;49.488;9.900;2024-03-06T01:21:22;9.80;69.60
39325;DHT22;25037;49.488;9.900;2024-03-06T01:23:49;9.90;69.60
39325;DHT22;25037;49.488;9.900;2024-03-06T01:26:16;9.80;69.60
39325;DHT22;25037;49.488;9.900;2024-03-06T01:28:43;9.80;69.60
39325;DHT22;25037;49.488;9.900;2024-03-06T01:31:10;9.90;69.60
39325;DHT22;25037;49.488;9.900;2024-03-06T01:33:36;9.90;69.70
39325;DHT22;25037;49.488;9.900;2024-03-06T01:36:03;9.90;69.60
39325;DHT22;25037;49.488;9.900;2024-03-06T01:38:30;9.90;69.70
39325;DHT22;25037;49.488;9.900;2024-03-06T01:40:57;9.90;69.70
39325;DHT22;25037;49.488;9.900;2024-03-06T01:43:25;9.90;69.70
39325;DHT22;25037;49.488;9.900;2024-03-06T01:45:53;9.80;69.70
39325;DHT22;25037;49.488;9.900;2024-03-06T01:48:23;9.90;69.70
39325;DHT22;25037;49.488;9.900;2024-03-06T01:50:54;9.80;69.80
39325;DHT22;25037;49.488;9.900;2024-03-06T01:53:22;9.80;69.80
39325;DHT22;25037;49.488;9.900;2024-03-06T01:55:51;9.80;69.90
39325;DHT22;25037;49.488;9.900;2024-03-06T01:58:18;9.80;69.90
39325;DHT22;25037;49.488;9.900;2024-03-06T02:00:49;9.80;69.90
39325;DHT22;25037;49.488;9.900;2024-03-06T02:03:17;9.80;70.00
39325;DHT22;25037;49.488;9.900;2024-03-06T02:05:50;9.80;70.00
39325;DHT22;25037;49.488;9.900;2024-03-06T02:08:17;9.80;70.00
39325;DHT22;25037;49.488;9.900;2024-03-06T02:10:44;9.70;69.90
39325;DHT22;25037;49.488;9.900;2024-03-06T02:13:12;9.70;70.00
39325;DHT22;25037;49.488;9.900;2024-03-06T02:15:40;9.80;70.00
39325;DHT22;25037;49.488;9.900;2024-03-06T02:18:07;9.70;70.00
39325;DHT22;25037;49.488;9.900;2024-03-06T02:20:38;9.70;70.00
39325;DHT22;25037;49.488;9.900;2024-03-06T02:23:05;9.70;70.00
39325;DHT22;25037;49.488;9.900;2024-03-06T02:25:32;9.70;70.00
39325;DHT22;25037;49.488;9.900;2024-03-06T02:27:59;9.70;70.00
39325;DHT22;25037;49.488;9.900;2024-03-06T02:30:26;9.70;70.00
39325;DHT22;25037;49.488;9.900;2024-03-06T02:32:52;9.70;70.00
39325;DHT22;25037;49.488;9.900;2024-03-06T02:35:19;9.70;70.10
39325;DHT22;25037;49.488;9.900;2024-03-06T02:37:46;9.70;70.00
39325;DHT22;25037;49.488;9.900;2024-03-06T02:40:13;9.70;70.10
39325;DHT22;25037;49.488;9.900;2024-03-06T02:42:40;9.70;70.00
39325;DHT22;25037;49.488;9.900;2024-03-06T02:45:07;9.70;70.00
39325;DHT22;25037;49.488;9.900;2024-03-06T02:47:35;9.60;70.00
39325;DHT22;25037;49.488;9.900;2024-03-06T02:50:02;9.60;70.10
39325;DHT22;25037;49.488;9.900;2024-03-06T02:52:28;9.60;70.10
39325;DHT22;25037;49.488;9.900;2024-03-06T02:54:56;9.60;70.00
39325;DHT22;25037;49.488;9.900;2024-03-06T02:57:22;9.60;70.00
39325;DHT22;25037;49.488;9.900;2024-03-06T02:59:49;9.60;70.10
39325;DHT22;25037;49.488;9.900;2024-03-06T03:02:16;9.60;70.10
39325;DHT22;25037;49.488;9.900;2024-03-06T03:04:43;9.60;70.10
39325;DHT22;25037;49.488;9.900;2024-03-06T03:07:10;9.60;70.10
39325;DHT22;25037;49.488;9.900;2024-03-06T03:09:37;9.60;70.20
39325;DHT22;25037;49.488;9.900;2024-03-06T03:12:05;9.60;70.20
39325;DHT22;25037;49.488;9.900;2024-03-06T03:14:32;9.70;70.20
39325;DHT22;25037;49.488;9.900;2024-03-06T03:17:00;9.60;70.20
39325;DHT22;25037;49.488;9.900;2024-03-06T03:19:27;9.60;70.20
39325;DHT22;25037;49.488;9.900;2024-03-06T03:21:53;9.60;70.20
39325;DHT22;25037;49.488;9.900;2024-03-06T03:24:20;9.60;70.20
39325;DHT22;25037;49.488;9.900;2024-03-06T03:26:48;9.60;70.20
39325;DHT22;25037;49.488;9.900;2024-03-06T03:29:15;9.60;70.20
39325;DHT22;25037;49.488;9.900;2024-03-06T03:31:41;9.60;70.20
39325;DHT22;25037;49.488;9.900;2024-03-06T03:34:09;9.60;70.30
39325;DHT22;25037;49.488;9.900;2024-03-06T03:36:41;9.60;70.30
39325;DHT22;25037;49.488;9.900;2024-03-06T03:39:10;9.60;70.30
39325;DHT22;25037;49.488;9.900;2024-03-06T03:41:46;9.60;70.30
39325;DHT22;25037;49.488;9.900;2024-03-06T03:44:17;9.60;70.30
39325;DHT22;25037;49.488;9.900;2024-03-06T03:46:45;9.60;70.30
39325;DHT22;25037;49.488;9.900;2024-03-06T03:49:12;9.60;70.30
39325;DHT22;25037;49.488;9.900;2024-03-06T03:51:39;9.60;70.30
39325;DHT22;25037;49.488;9.900;2024-03-06T03:54:06;9.60;70.30
39325;DHT22;25037;49.488;9.900;2024-03-06T03:56:33;9.50;70.30
39325;DHT22;25037;49.488;9.900;2024-03-06T03:59:00;9.60;70.30
39325;DHT22;25037;49.488;9.900;2024-03-06T04:01:27;9.60;70.40
39325;DHT22;25037;49.488;9.900;2024-03-06T04:03:53;9.60;70.40
39325;DHT22;25037;49.488;9.900;2024-03-06T04:06:20;9.50;70.40
39325;DHT22;25037;49.488;9.900;2024-03-06T04:08:47;9.60;70.40
39325;DHT22;25037;49.488;9.900;2024-03-06T04:11:14;9.50;70.40
39325;DHT22;25037;49.488;9.900;2024-03-06T04:13:40;9.50;70.40
39325;DHT22;25037;49.488;9.900;2024-03-06T04:16:07;9.50;70.40
39325;DHT22;25037;49.488;9.900;2024-03-06T04:18:34;9.50;70.40
39325;DHT22;25037;49.488;9.900;2024-03-06T04:21:07;9.60;70.40
39325;DHT22;25037;49.488;9.900;2024-03-06T04:23:34;9.50;70.40
39325;DHT22;25037;49.488;9.900;2024-03-06T04:26:00;9.50;70.40
39325;DHT22;25037;49.488;9.900;2024-03-06T04:28:27;9.50;70.40
39325;DHT22;25037;49.488;9.900;2024-03-06T04:30:54;9.50;70.40
39325;DHT22;25037;49.488;9.900;2024-03-06T04:33:21;9.50;70.30
39325;DHT22;25037;49.488;9.900;2024-03-06T04:35:48;9.50;70.30
39325;DHT22;25037;49.488;9.900;2024-03-06T04:38:14;9.50;70.30
39325;DHT22;25037;49.488;9.900;2024-03-06T04:40:41;9.50;70.30
39325;DHT22;25037;49.488;9.900;2024-03-06T04:43:08;9.50;70.40
39325;DHT22;25037;49.488;9.900;2024-03-06T04:45:35;9.50;70.40
39325;DHT22;25037;49.488;9.900;2024-03-06T04:48:01;9.50;70.40
39325;DHT22;25037;49.488;9.900;2024-03-06T04:50:28;9.50;70.40
39325;DHT22;25037;49.488;9.900;2024-03-06T04:52:55;9.50;70.40
39325;DHT22;25037;49.488;9.900;2024-03-06T04:55:22;9.50;70.50
39325;DHT22;25037;49.488;9.900;2024-03-06T04:57:49;9.50;70.50
39325;DHT22;25037;49.488;9.900;2024-03-06T05:00:16;9.50;70.50
39325;DHT22;25037;49.488;9.900;2024-03-06T05:02:45;9.40;70.50
39325;DHT22;25037;49.488;9.900;2024-03-06T05:05:29;9.40;70.60
39325;DHT22;25037;49.488;9.900;2024-03-06T05:08:13;9.50;70.60
39325;DHT22;25037;49.488;9.900;2024-03-06T05:11:00;9.40;70.60
39325;DHT22;25037;49.488;9.900;2024-03-06T05:13:45;9.40;70.50
39325;DHT22;25037;49.488;9.900;2024-03-06T05:16:29;9.50;70.50
39325;DHT22;25037;49.488;9.900;2024-03-06T05:19:13;9.40;70.60
39325;DHT22;25037;49.488;9.900;2024-03-06T05:22:00;9.40;70.50
39325;DHT22;25037;49.488;9.900;2024-03-06T05:24:44;9.50;70.60
39325;DHT22;25037;49.488;9.900;2024-03-06T05:27:28;9.50;70.50
39325;DHT22;25037;49.488;9.900;2024-03-06T05:30:12;9.50;70.50
39325;DHT22;25037;49.488;9.900;2024-03-06T05:32:57;9.50;70.50
39325;DHT22;25037;49.488;9.900;2024-03-06T05:35:41;9.40;70.50
39325;DHT22;25037;49.488;9.900;2024-03-06T05:38:26;9.40;70.50
39325;DHT22;25037;49.488;9.900;2024-03-06T05:41:10;9.40;70.50
39325;DHT22;25037;49.488;9.900;2024-03-06T05:43:55;9.40;70.50
39325;DHT22;25037;49.488;9.900;2024-03-06T05:46:40;9.40;70.50
39325;DHT22;25037;49.488;9.900;2024-03-06T05:49:25;9.40;70.50
39325;DHT22;25037;49.488;9.900;2024-03-06T05:52:09;9.40;70.50
39325;DHT22;25037;49.488;9.900;2024-03-06T05:54:53;9.40;70.50
39325;DHT22;25037;49.488;9.900;2024-03-06T05:57:37;9.40;70.60
39325;DHT22;25037;49.488;9.900;2024-03-06T06:00:22;9.40;70.60
39325;DHT22;25037;49.488;9.900;2024-03-06T06:02:49;9.40;70.60
39325;DHT22;25037;49.488;9.900;2024-03-06T06:05:15;9.40;70.60
39325;DHT22;25037;49.488;9.900;2024-03-06T06:07:50;9.40;70.70
39325;DHT22;25037;49.488;9.900;2024-03-06T06:10:17;9.40;70.60
39325;DHT22;25037;49.488;9.900;2024-03-06T06:12:48;9.40;70.60
39325;DHT22;25037;49.488;9.900;2024-03-06T06:15:15;9.50;70.60
39325;DHT22;25037;49.488;9.900;2024-03-06T06:17:42;9.50;70.70
39325;DHT22;25037;49.488;9.900;2024-03-06T06:20:12;9.50;70.70
39325;DHT22;25037;49.488;9.900;2024-03-06T06:22:42;9.50;70.70
39325;DHT22;25037;49.488;9.900;2024-03-06T06:25:09;9.50;70.80
39325;DHT22;25037;49.488;9.900;2024-03-06T06:27:37;9.50;70.80
39325;DHT22;25037;49.488;9.900;2024-03-06T06:30:05;9.50;70.80
39325;DHT22;25037;49.488;9.900;2024-03-06T06:32:33;9.60;70.70
39325;DHT22;25037;49.488;9.900;2024-03-06T06:35:00;9.60;70.80
39325;DHT22;25037;49.488;9.900;2024-03-06T06:37:27;9.50;70.80
39325;DHT22;25037;49.488;9.900;2024-03-06T06:39:54;9.60;70.70
39325;DHT22;25037;49.488;9.900;2024-03-06T06:42:20;9.60;70.80
39325;DHT22;25037;49.488;9.900;2024-03-06T06:44:47;9.60;70.70
39325;DHT22;25037;49.488;9.900;2024-03-06T06:47:14;9.70;70.70
39325;DHT22;25037;49.488;9.900;2024-03-06T06:49:40;9.70;70.80
39325;DHT22;25037;49.488;9.900;2024-03-06T06:52:07;9.70;70.80
39325;DHT22;25037;49.488;9.900;2024-03-06T06:54:34;9.70;70.70
39325;DHT22;25037;49.488;9.900;2024-03-06T06:57:01;9.80;70.70
39325;DHT22;25037;49.488;9.900;2024-03-06T06:59:29;9.80;70.70
39325;DHT22;25037;49.488;9.900;2024-03-06T07:01:56;9.80;70.70
39325;DHT22;25037;49.488;9.900;2024-03-06T07:04:23;9.80;70.70
39325;DHT22;25037;49.488;9.900;2024-03-06T07:06:51;9.90;70.70
39325;DHT22;25037;49.488;9.900;2024-03-06T07:09:18;9.90;70.60
39325;DHT22;25037;49.488;9.900;2024-03-06T07:11:45;10.00;70.60
39325;DHT22;25037;49.488;9.900;2024-03-06T07:14:13;10.00;70.60
39325;DHT22;25037;49.488;9.900;2024-03-06T07:16:43;10.10;70.60
39325;DHT22;25037;49.488;9.900;2024-03-06T07:19:11;10.10;70.60
39325;DHT22;25037;49.488;9.900;2024-03-06T07:21:37;10.10;70.50
39325;DHT22;25037;49.488;9.900;2024-03-06T07:24:05;10.20;70.50
39325;DHT22;25037;49.488;9.900;2024-03-06T07:26:35;10.20;70.40
39325;DHT22;25037;49.488;9.900;2024-03-06T07:29:02;10.30;70.50
39325;DHT22;25037;49.488;9.900;2024-03-06T07:31:29;10.40;70.40
39325;DHT22;25037;49.488;9.900;2024-03-06T07:33:56;10.40;70.50
39325;DHT22;25037;49.488;9.900;2024-03-06T07:36:23;10.40;70.50
39325;DHT22;25037;49.488;9.900;2024-03-06T07:38:49;10.40;70.50
39325;DHT22;25037;49.488;9.900;2024-03-06T07:41:16;10.50;70.50
39325;DHT22;25037;49.488;9.900;2024-03-06T07:43:43;10.60;70.50
39325;DHT22;25037;49.488;9.900;2024-03-06T07:46:10;10.60;70.40
39325;DHT22;25037;49.488;9.900;2024-03-06T07:48:38;10.60;70.30
39325;DHT22;25037;49.488;9.900;2024-03-06T07:51:05;10.60;70.30
39325;DHT22;25037;49.488;9.900;2024-03-06T07:53:31;10.60;70.20
39325;DHT22;25037;49.488;9.900;2024-03-06T07:55:58;10.70;70.20
39325;DHT22;25037;49.488;9.900;2024-03-06T07:58:25;10.70;70.20
39325;DHT22;25037;49.488;9.900;2024-03-06T08:00:52;10.70;70.10
39325;DHT22;25037;49.488;9.900;2024-03-06T08:03:23;10.80;70.20
39325;DHT22;25037;49.488;9.900;2024-03-06T08:05:52;10.80;70.10
39325;DHT22;25037;49.488;9.900;2024-03-06T08:08:22;10.90;70.10
39325;DHT22;25037;49.488;9.900;2024-03-06T08:10:49;11.00;70.20
39325;DHT22;25037;49.488;9.900;2024-03-06T08:13:16;11.10;70.20
39325;DHT22;25037;49.488;9.900;2024-03-06T08:15:44;11.20;70.00
39325;DHT22;25037;49.488;9.900;2024-03-06T08:18:12;11.30;70.00
39325;DHT22;25037;49.488;9.900;2024-03-06T08:20:40;11.40;69.80
39325;DHT22;25037;49.488;9.900;2024-03-06T08:23:09;11.50;69.60
39325;DHT22;25037;49.488;9.900;2024-03-06T08:25:38;11.50;69.50
39325;DHT22;25037;49.488;9.900;2024-03-06T08:28:05;11.60;69.50
39325;DHT22;25037;49.488;9.900;2024-03-06T08:30:32;11.60;69.40
39325;DHT22;25037;49.488;9.900;2024-03-06T08:32:59;11.60;69.40
39325;DHT22;25037;49.488;9.900;2024-03-06T08:35:27;11.60;69.40
39325;DHT22;25037;49.488;9.900;2024-03-06T08:37:54;11.60;69.40
39325;DHT22;25037;49.488;9.900;2024-03-06T08:40:21;11.60;69.40
39325;DHT22;25037;49.488;9.900;2024-03-06T08:42:48;11.60;69.30
39325;DHT22;25037;49.488;9.900;2024-03-06T08:45:16;11.60;69.30
39325;DHT22;25037;49.488;9.900;2024-03-06T08:47:44;11.60;69.40
39325;DHT22;25037;49.488;9.900;2024-03-06T08:50:12;11.60;69.40
39325;DHT22;25037;49.488;9.900;2024-03-06T08:52:39;11.60;69.30
39325;DHT22;25037;49.488;9.900;2024-03-06T08:55:06;11.60;69.30
39325;DHT22;25037;49.488;9.900;2024-03-06T08:57:34;11.50;69.40
39325;DHT22;25037;49.488;9.900;2024-03-06T09:00:01;11.50;69.40
39325;DHT22;25037;49.488;9.900;2024-03-06T09:02:27;11.50;69.40
39325;DHT22;25037;49.488;9.900;2024-03-06T09:04:55;11.40;69.40
39325;DHT22;25037;49.488;9.900;2024-03-06T09:07:22;11.40;69.50
39325;DHT22;25037;49.488;9.900;2024-03-06T09:09:50;11.40;69.50
39325;DHT22;25037;49.488;9.900;2024-03-06T09:12:20;11.30;69.50
39325;DHT22;25037;49.488;9.900;2024-03-06T09:14:47;11.30;69.60
39325;DHT22;25037;49.488;9.900;2024-03-06T09:17:14;11.30;69.60
39325;DHT22;25037;49.488;9.900;2024-03-06T09:19:42;11.30;69.60
39325;DHT22;25037;49.488;9.900;2024-03-06T09:22:28;11.30;69.60
39325;DHT22;25037;49.488;9.900;2024-03-06T09:24:55;11.40;69.60
39325;DHT22;25037;49.488;9.900;2024-03-06T09:27:23;11.30;69.70
39325;DHT22;25037;49.488;9.900;2024-03-06T09:29:49;11.40;69.60
39325;DHT22;25037;49.488;9.900;2024-03-06T09:32:16;11.30;69.60
39325;DHT22;25037;49.488;9.900;2024-03-06T09:34:45;11.30;69.60
39325;DHT22;25037;49.488;9.900;2024-03-06T09:37:12;11.30;69.60
39325;DHT22;25037;49.488;9.900;2024-03-06T09:39:39;11.30;69.50
39325;DHT22;25037;49.488;9.900;2024-03-06T09:42:06;11.30;69.50
39325;DHT22;25037;49.488;9.900;2024-03-06T09:44:34;11.30;69.50
39325;DHT22;25037;49.488;9.900;2024-03-06T09:47:03;11.30;69.60
39325;DHT22;25037;49.488;9.900;2024-03-06T09:49:31;11.30;69.50
39325;DHT22;25037;49.488;9.900;2024-03-06T09:51:58;11.30;69.50
39325;DHT22;25037;49.488;9.900;2024-03-06T09:54:25;11.30;69.50
39325;DHT22;25037;49.488;9.900;2024-03-06T09:56:55;11.30;69.60
39325;DHT22;25037;49.488;9.900;2024-03-06T09:59:24;11.30;69.60
39325;DHT22;25037;49.488;9.900;2024-03-06T10:04:28;11.40;69.60
39325;DHT22;25037;49.488;9.900;2024-03-06T10:06:59;11.40;69.60
39325;DHT22;25037;49.488;9.900;2024-03-06T10:09:27;11.50;69.60
39325;DHT22;25037;49.488;9.900;2024-03-06T10:11:54;11.60;69.50
39325;DHT22;25037;49.488;9.900;2024-03-06T10:14:23;11.70;69.40
39325;DHT22;25037;49.488;9.900;2024-03-06T10:16:54;11.70;69.30
39325;DHT22;25037;49.488;9.900;2024-03-06T10:19:24;11.70;69.30
39325;DHT22;25037;49.488;9.900;2024-03-06T10:21:51;11.80;69.20
39325;DHT22;25037;49.488;9.900;2024-03-06T10:24:19;11.80;69.10
39325;DHT22;25037;49.488;9.900;2024-03-06T10:26:47;11.80;69.10
39325;DHT22;25037;49.488;9.900;2024-03-06T10:29:16;11.80;69.20
39325;DHT22;25037;49.488;9.900;2024-03-06T10:31:57;11.80;69.20
39325;DHT22;25037;49.488;9.900;2024-03-06T10:34:28;11.90;69.20
39325;DHT22;25037;49.488;9.900;2024-03-06T10:36:57;11.90;69.10
39325;DHT22;25037;49.488;9.900;2024-03-06T10:39:24;11.90;69.00
39325;DHT22;25037;49.488;9.900;2024-03-06T10:41:55;11.90;69.10
39325;DHT22;25037;49.488;9.900;2024-03-06T10:44:24;11.90;68.90
39325;DHT22;25037;49.488;9.900;2024-03-06T10:46:59;12.00;68.90
39325;DHT22;25037;49.488;9.900;2024-03-06T10:49:28;12.10;68.90
39325;DHT22;25037;49.488;9.900;2024-03-06T10:52:05;12.20;68.90
39325;DHT22;25037;49.488;9.900;2024-03-06T10:54:35;12.20;68.90
39325;DHT22;25037;49.488;9.900;2024-03-06T10:57:04;12.30;68.80
39325;DHT22;25037;49.488;9.900;2024-03-06T10:59:31;12.30;68.80
39325;DHT22;25037;49.488;9.900;2024-03-06T11:01:59;12.40;68.70
39325;DHT22;25037;49.488;9.900;2024-03-06T11:04:30;12.40;68.60
39325;DHT22;25037;49.488;9.900;2024-03-06T11:07:02;12.50;68.50
39325;DHT22;25037;49.488;9.900;2024-03-06T11:09:33;12.60;68.50
39325;DHT22;25037;49.488;9.900;2024-03-06T11:12:05;12.60;68.10
39325;DHT22;25037;49.488;9.900;2024-03-06T11:14:39;12.60;68.00
39325;DHT22;25037;49.488;9.900;2024-03-06T11:17:10;12.60;68.10
39325;DHT22;25037;49.488;9.900;2024-03-06T11:28:20;12.50;68.00
39325;DHT22;25037;49.488;9.900;2024-03-06T11:31:03;12.50;68.00
39325;DHT22;25037;49.488;9.900;2024-03-06T11:33:41;12.40;68.00
39325;DHT22;25037;49.488;9.900;2024-03-06T11:36:22;12.40;67.90
39325;DHT22;25037;49.488;9.900;2024-03-06T11:41:25;12.50;67.90
39325;DHT22;25037;49.488;9.900;2024-03-06T11:43:53;12.50;68.00
39325;DHT22;25037;49.488;9.900;2024-03-06T11:46:21;12.60;67.90
39325;DHT22;25037;49.488;9.900;2024-03-06T11:48:54;12.70;67.70
39325;DHT22;25037;49.488;9.900;2024-03-06T11:51:24;12.80;67.70
39325;DHT22;25037;49.488;9.900;2024-03-06T11:53:52;12.80;67.50
39325;DHT22;25037;49.488;9.900;2024-03-06T11:56:20;12.90;67.40
39325;DHT22;25037;49.488;9.900;2024-03-06T11:58:47;12.90;67.30
39325;DHT22;25037;49.488;9.900;2024-03-06T12:01:16;12.90;67.20
39325;DHT22;25037;49.488;9.900;2024-03-06T12:03:43;13.00;67.20
39325;DHT22;25037;49.488;9.900;2024-03-06T12:06:10;13.10;66.90
39325;DHT22;25037;49.488;9.900;2024-03-06T12:08:38;13.10;66.30
39325;DHT22;25037;49.488;9.900;2024-03-06T12:11:06;13.10;66.10
39325;DHT22;25037;49.488;9.900;2024-03-06T12:13:34;13.10;66.20
39325;DHT22;25037;49.488;9.900;2024-03-06T12:16:06;13.20;66.20
39325;DHT22;25037;49.488;9.900;2024-03-06T12:18:34;13.30;66.10
39325;DHT22;25037;49.488;9.900;2024-03-06T12:21:01;13.30;66.10
39325;DHT22;25037;49.488;9.900;2024-03-06T12:23:29;13.50;65.50
39325;DHT22;25037;49.488;9.900;2024-03-06T12:26:09;13.50;65.40
39325;DHT22;25037;49.488;9.900;2024-03-06T12:28:38;13.50;65.20
39325;DHT22;25037;49.488;9.900;2024-03-06T12:31:06;13.50;65.20
39325;DHT22;25037;49.488;9.900;2024-03-06T12:33:34;13.60;65.30
39325;DHT22;25037;49.488;9.900;2024-03-06T12:36:08;13.80;65.20
39325;DHT22;25037;49.488;9.900;2024-03-06T12:38:37;13.90;64.80
39325;DHT22;25037;49.488;9.900;2024-03-06T12:41:05;14.00;64.60
39325;DHT22;25037;49.488;9.900;2024-03-06T12:43:32;14.10;64.20
39325;DHT22;25037;49.488;9.900;2024-03-06T12:46:01;14.10;63.90
39325;DHT22;25037;49.488;9.900;2024-03-06T12:48:31;14.10;63.60
39325;DHT22;25037;49.488;9.900;2024-03-06T12:50:58;14.10;63.40
39325;DHT22;25037;49.488;9.900;2024-03-06T12:53:32;14.10;63.30
39325;DHT22;25037;49.488;9.900;2024-03-06T12:56:02;14.00;63.20
39325;DHT22;25037;49.488;9.900;2024-03-06T12:58:29;13.90;63.20
39325;DHT22;25037;49.488;9.900;2024-03-06T13:00:57;13.90;63.30
39325;DHT22;25037;49.488;9.900;2024-03-06T13:03:25;13.80;63.10
39325;DHT22;25037;49.488;9.900;2024-03-06T13:05:52;13.80;62.90
39325;DHT22;25037;49.488;9.900;2024-03-06T13:08:18;13.70;62.70
39325;DHT22;25037;49.488;9.900;2024-03-06T13:10:45;13.70;62.60
39325;DHT22;25037;49.488;9.900;2024-03-06T13:13:12;13.80;62.70
39325;DHT22;25037;49.488;9.900;2024-03-06T13:15:38;13.80;62.70
39325;DHT22;25037;49.488;9.900;2024-03-06T13:18:06;13.80;62.60
39325;DHT22;25037;49.488;9.900;2024-03-06T13:20:33;13.80;62.40
39325;DHT22;25037;49.488;9.900;2024-03-06T13:23:01;13.80;62.40
39325;DHT22;25037;49.488;9.900;2024-03-06T13:25:28;13.90;62.10
39325;DHT22;25037;49.488;9.900;2024-03-06T13:27:55;14.00;61.90
39325;DHT22;25037;49.488;9.900;2024-03-06T13:30:22;14.00;61.70
39325;DHT22;25037;49.488;9.900;2024-03-06T13:32:49;14.00;61.80
39325;DHT22;25037;49.488;9.900;2024-03-06T13:35:16;14.10;61.80
39325;DHT22;25037;49.488;9.900;2024-03-06T13:37:43;14.20;61.60
39325;DHT22;25037;49.488;9.900;2024-03-06T13:40:10;14.20;61.80
39325;DHT22;25037;49.488;9.900;2024-03-06T13:42:40;14.20;61.60
39325;DHT22;25037;49.488;9.900;2024-03-06T13:45:08;14.30;61.50
39325;DHT22;25037;49.488;9.900;2024-03-06T13:47:44;14.30;61.40
39325;DHT22;25037;49.488;9.900;2024-03-06T13:50:13;14.30;61.30
39325;DHT22;25037;49.488;9.900;2024-03-06T13:52:41;14.30;61.30
39325;DHT22;25037;49.488;9.900;2024-03-06T13:55:08;14.50;61.30
39325;DHT22;25037;49.488;9.900;2024-03-06T13:57:37;14.60;61.20
39325;DHT22;25037;49.488;9.900;2024-03-06T14:00:09;14.70;61.00
39325;DHT22;25037;49.488;9.900;2024-03-06T14:02:39;14.70;60.90
39325;DHT22;25037;49.488;9.900;2024-03-06T14:05:07;14.70;60.80
39325;DHT22;25037;49.488;9.900;2024-03-06T14:07:34;14.70;60.50
39325;DHT22;25037;49.488;9.900;2024-03-06T14:10:01;14.70;60.70
39325;DHT22;25037;49.488;9.900;2024-03-06T14:12:32;14.70;60.50
39325;DHT22;25037;49.488;9.900;2024-03-06T14:14:58;14.80;60.40
39325;DHT22;25037;49.488;9.900;2024-03-06T14:17:25;14.80;60.50
39325;DHT22;25037;49.488;9.900;2024-03-06T14:19:52;14.80;60.20
39325;DHT22;25037;49.488;9.900;2024-03-06T14:22:18;14.80;60.10
39325;DHT22;25037;49.488;9.900;2024-03-06T14:24:45;14.80;59.90
39325;DHT22;25037;49.488;9.900;2024-03-06T14:27:12;14.80;59.70
39325;DHT22;25037;49.488;9.900;2024-03-06T14:29:42;14.80;59.60
39325;DHT22;25037;49.488;9.900;2024-03-06T14:32:09;14.70;59.60
39325;DHT22;25037;49.488;9.900;2024-03-06T14:34:36;14.60;59.70
39325;DHT22;25037;49.488;9.900;2024-03-06T14:37:03;14.60;59.60
39325;DHT22;25037;49.488;9.900;2024-03-06T14:39:30;14.50;59.60
39325;DHT22;25037;49.488;9.900;2024-03-06T14:41:56;14.50;59.60
39325;DHT22;25037;49.488;9.900;2024-03-06T14:44:23;14.50;59.70
39325;DHT22;25037;49.488;9.900;2024-03-06T14:46:50;14.40;59.90
39325;DHT22;25037;49.488;9.900;2024-03-06T14:49:17;14.40;59.90
39325;DHT22;25037;49.488;9.900;2024-03-06T14:51:43;14.40;60.10
39325;DHT22;25037;49.488;9.900;2024-03-06T14:54:10;14.40;60.00
39325;DHT22;25037;49.488;9.900;2024-03-06T14:56:37;14.40;60.10
39325;DHT22;25037;49.488;9.900;2024-03-06T14:59:04;14.40;59.80
39325;DHT22;25037;49.488;9.900;2024-03-06T15:01:31;14.30;59.60
39325;DHT22;25037;49.488;9.900;2024-03-06T15:03:57;14.20;59.80
39325;DHT22;25037;49.488;9.900;2024-03-06T15:06:25;14.00;59.90
39325;DHT22;25037;49.488;9.900;2024-03-06T15:08:52;13.90;59.80
39325;DHT22;25037;49.488;9.900;2024-03-06T15:11:19;13.90;59.90
39325;DHT22;25037;49.488;9.900;2024-03-06T15:13:49;13.80;60.00
39325;DHT22;25037;49.488;9.900;2024-03-06T15:16:16;13.80;60.00
39325;DHT22;25037;49.488;9.900;2024-03-06T15:18:43;13.70;60.10
39325;DHT22;25037;49.488;9.900;2024-03-06T15:21:10;13.60;60.20
39325;DHT22;25037;49.488;9.900;2024-03-06T15:23:38;13.50;60.30
39325;DHT22;25037;49.488;9.900;2024-03-06T15:26:05;13.50;60.40
39325;DHT22;25037;49.488;9.900;2024-03-06T15:28:32;13.40;60.50
39325;DHT22;25037;49.488;9.900;2024-03-06T15:30:58;13.30;60.50
39325;DHT22;25037;49.488;9.900;2024-03-06T15:33:25;13.30;60.40
39325;DHT22;25037;49.488;9.900;2024-03-06T15:35:52;13.20;60.50
39325;DHT22;25037;49.488;9.900;2024-03-06T15:38:19;13.20;60.40
39325;DHT22;25037;49.488;9.900;2024-03-06T15:40:47;13.10;60.50
39325;DHT22;25037;49.488;9.900;2024-03-06T15:43:17;13.10;60.60
39325;DHT22;25037;49.488;9.900;2024-03-06T15:45:44;13.10;60.60
39325;DHT22;25037;49.488;9.900;2024-03-06T15:48:11;13.00;60.60
39325;DHT22;25037;49.488;9.900;2024-03-06T15:50:41;13.00;60.70
39325;DHT22;25037;49.488;9.900;2024-03-06T15:53:08;13.00;60.70
39325;DHT22;25037;49.488;9.900;2024-03-06T15:55:35;12.90;60.70
39325;DHT22;25037;49.488;9.900;2024-03-06T15:58:03;13.00;60.80
39325;DHT22;25037;49.488;9.900;2024-03-06T16:00:30;13.00;60.80